Time;durP1;ratioP1;P1;durP2;ratioP2;P2;SDS_P1;SDS_P2;PMS_P1;PMS_P2;Temp;Humidity;BMP_temperature;BMP_pressure;BME280_temperature;BME280_humidity;BME280_pressure;Samples;Min_cycle;Max_cycle;Signal;HPM_P1;HPM_P2
2023/01/01 00:01:11;;;;;;;24.83;12.20;;;13.20;99.90;;;;;;5032314;28;20120;-72
2023/01/01 00:03:37;;;;;;;29.02;14.00;;;13.10;99.90;;;;;;5032126;28;20046;-72
2023/01/01 00:06:08;;;;;;;33.05;13.57;;;13.00;99.90;;;;;;5031744;28;20044;-71
2023/01/01 00:08:34;;;;;;;31.90;13.25;;;12.90;99.90;;;;;;5028744;28;20052;-72
2023/01/01 00:11:05;;;;;;;26.33;11.70;;;12.90;99.90;;;;;;5019417;28;20045;-73
2023/01/01 00:13:31;;;;;;;23.85;10.00;;;12.90;99.90;;;;;;4981823;28;20079;-75
2023/01/01 00:16:07;;;;;;;25.45;9.82;;;12.90;99.90;;;;;;5015711;28;20089;-72
2023/01/01 00:18:33;;;;;;;22.25;8.85;;;12.90;99.90;;;;;;5027342;28;20059;-75
2023/01/01 00:21:21;;;;;;;24.33;9.52;;;12.90;99.90;;;;;;5020441;28;20490;-72
2023/01/01 00:23:47;;;;;;;29.30;11.40;;;12.90;99.90;;;;;;5028395;28;20554;-72
2023/01/01 00:26:15;;;;;;;24.02;10.90;;;12.90;99.90;;;;;;5018784;28;20045;-72
2023/01/01 00:28:42;;;;;;;25.52;10.13;;;12.90;99.90;;;;;;5008742;28;20038;-71
2023/01/01 00:31:09;;;;;;;23.20;9.82;;;12.90;99.90;;;;;;5009340;28;20118;-72
2023/01/01 00:33:35;;;;;;;32.78;10.60;;;12.90;99.90;;;;;;5014851;28;20041;-70
2023/01/01 00:36:14;;;;;;;19.42;8.18;;;12.90;99.90;;;;;;4991944;28;20050;-69
2023/01/01 00:38:41;;;;;;;23.05;10.35;;;12.90;99.90;;;;;;5009042;28;20050;-70
2023/01/01 00:41:07;;;;;;;17.00;7.85;;;13.00;99.90;;;;;;5009867;28;20312;-70
2023/01/01 00:43:33;;;;;;;22.85;9.98;;;13.00;99.90;;;;;;5008623;28;20072;-72
2023/01/01 00:45:59;;;;;;;25.65;12.00;;;13.10;99.90;;;;;;5008710;28;20077;-70
2023/01/01 00:48:25;;;;;;;22.05;10.43;;;13.10;99.90;;;;;;5008925;28;20510;-70
2023/01/01 00:50:51;;;;;;;37.17;9.88;;;13.10;99.90;;;;;;5016111;28;20110;-70
2023/01/01 00:53:19;;;;;;;17.23;8.77;;;13.20;99.90;;;;;;5025664;28;20116;-70
2023/01/01 00:55:47;;;;;;;21.77;9.98;;;13.20;99.90;;;;;;5028219;28;20109;-70
2023/01/01 00:58:13;;;;;;;23.63;10.00;;;13.20;99.90;;;;;;5008861;28;20099;-70
2023/01/01 01:00:39;;;;;;;21.08;10.13;;;13.20;99.90;;;;;;5008653;28;20133;-70
2023/01/01 01:03:04;;;;;;;26.67;12.43;;;13.20;99.90;;;;;;5008362;28;20137;-71
2023/01/01 01:05:31;;;;;;;31.83;11.23;;;13.10;99.90;;;;;;5009025;28;20093;-70
2023/01/01 01:07:58;;;;;;;21.30;9.48;;;13.10;99.90;;;;;;4990699;28;20053;-70
2023/01/01 01:10:24;;;;;;;25.05;11.05;;;13.10;99.90;;;;;;5013927;28;20057;-71
2023/01/01 01:12:51;;;;;;;23.80;11.55;;;13.00;99.90;;;;;;5017849;28;20052;-70
2023/01/01 01:15:18;;;;;;;22.20;10.60;;;13.00;99.90;;;;;;5009076;28;20038;-70
2023/01/01 01:17:44;;;;;;;23.15;10.60;;;13.00;99.90;;;;;;5011797;28;20709;-69
2023/01/01 01:20:10;;;;;;;20.65;10.25;;;13.00;99.90;;;;;;5028608;28;20042;-70
2023/01/01 01:22:36;;;;;;;22.85;10.23;;;12.90;99.90;;;;;;5028192;28;20050;-70
2023/01/01 01:25:03;;;;;;;24.67;10.80;;;13.00;99.90;;;;;;5009759;28;20072;-69
2023/01/01 01:27:29;;;;;;;17.55;9.02;;;13.00;99.90;;;;;;5008308;28;20107;-71
2023/01/01 01:29:55;;;;;;;22.42;9.45;;;13.10;99.90;;;;;;5008543;28;20034;-69
2023/01/01 01:32:20;;;;;;;21.15;9.88;;;13.10;99.90;;;;;;5008968;28;20074;-70
2023/01/01 01:34:47;;;;;;;22.65;10.00;;;13.10;99.90;;;;;;5027861;28;20053;-70
2023/01/01 01:37:12;;;;;;;21.30;9.55;;;13.10;99.90;;;;;;5026454;28;20046;-70
2023/01/01 01:39:38;;;;;;;30.85;11.02;;;13.20;99.90;;;;;;4991309;28;20038;-71
2023/01/01 01:42:04;;;;;;;;;;;13.20;99.90;;;;;;5018275;28;20116;-70
2023/01/01 01:44:45;;;;;;;23.95;9.88;;;13.20;99.90;;;;;;4991293;28;20043;-70
2023/01/01 01:47:21;;;;;;;29.20;10.82;;;13.20;99.90;;;;;;5025470;28;20073;-69
2023/01/01 01:49:51;;;;;;;22.08;10.50;;;13.20;99.90;;;;;;5026747;28;20049;-70
2023/01/01 01:52:17;;;;;;;22.50;10.10;;;13.10;99.90;;;;;;5027784;28;20037;-70
2023/01/01 01:54:43;;;;;;;25.77;10.98;;;13.00;99.90;;;;;;5027283;28;20045;-69
2023/01/01 01:57:11;;;;;;;25.08;9.50;;;13.00;99.90;;;;;;5078787;28;20085;-70
2023/01/01 01:59:46;;;;;;;19.92;10.07;;;12.90;99.90;;;;;;5022452;28;20499;-70
2023/01/01 02:02:28;;;;;;;25.38;11.20;;;12.90;99.90;;;;;;5020469;28;20046;-71
2023/01/01 02:04:54;;;;;;;20.23;9.88;;;12.90;99.90;;;;;;5020804;28;20042;-72
2023/01/01 02:07:22;;;;;;;20.33;10.02;;;12.90;99.90;;;;;;5025648;28;20085;-72
2023/01/01 02:09:48;;;;;;;20.65;9.23;;;12.90;99.90;;;;;;5019117;28;20037;-72
2023/01/01 02:12:14;;;;;;;23.58;10.55;;;12.90;99.90;;;;;;5009933;28;20042;-71
2023/01/01 02:14:40;;;;;;;44.60;10.20;;;12.90;99.90;;;;;;5027872;28;20037;-71
2023/01/01 02:17:32;;;;;;;25.23;10.82;;;12.90;99.90;;;;;;5017009;28;20073;-71
2023/01/01 02:20:01;;;;;;;20.27;8.27;;;12.90;99.90;;;;;;5007650;28;20048;-71
2023/01/01 02:22:36;;;;;;;22.63;9.93;;;12.90;99.90;;;;;;5007588;28;20146;-71
2023/01/01 02:25:23;;;;;;;21.33;9.05;;;12.90;99.90;;;;;;5013856;28;20076;-71
2023/01/01 02:28:18;;;;;;;20.20;7.55;;;12.90;99.90;;;;;;5022196;28;20042;-72
2023/01/01 02:30:45;;;;;;;17.85;8.38;;;12.90;99.90;;;;;;5007328;28;20042;-74
2023/01/01 02:33:18;;;;;;;23.40;8.82;;;13.00;99.90;;;;;;4990093;28;20045;-71
2023/01/01 02:36:01;;;;;;;20.73;7.50;;;13.00;99.90;;;;;;5007110;28;20387;-74
2023/01/01 02:38:52;;;;;;;14.85;6.93;;;12.90;99.90;;;;;;5011899;28;20041;-72
2023/01/01 02:41:40;;;;;;;19.65;8.73;;;12.90;99.90;;;;;;5023678;28;20375;-72
2023/01/01 02:44:06;;;;;;;21.85;7.85;;;12.90;99.90;;;;;;5026572;28;20054;-71
2023/01/01 02:46:33;;;;;;;20.50;7.78;;;13.00;99.90;;;;;;5013315;28;20615;-71
2023/01/01 02:49:00;;;;;;;16.92;6.35;;;13.00;99.90;;;;;;5007401;28;20366;-71
2023/01/01 02:51:43;;;;;;;16.73;5.85;;;12.90;99.90;;;;;;5007057;28;20064;-72
2023/01/01 02:54:24;;;;;;;12.02;5.78;;;12.90;99.90;;;;;;5006840;28;20041;-71
2023/01/01 02:57:19;;;;;;;15.60;5.03;;;13.00;99.90;;;;;;4989604;28;20095;-71
2023/01/01 03:00:18;;;;;;;11.88;4.97;;;13.00;99.90;;;;;;5029548;28;20052;-72
2023/01/01 03:03:05;;;;;;;14.05;5.05;;;13.00;99.90;;;;;;5074879;28;20073;-72
2023/01/01 03:05:34;;;;;;;11.20;4.65;;;13.00;99.90;;;;;;5023842;28;20057;-71
2023/01/01 03:08:24;;;;;;;16.52;4.15;;;13.10;99.90;;;;;;5026219;28;20049;-71
2023/01/01 03:10:56;;;;;;;13.48;3.85;;;13.10;99.90;;;;;;5016776;28;20048;-71
2023/01/01 03:13:37;;;;;;;10.93;3.35;;;13.20;99.90;;;;;;5007028;28;20091;-71
2023/01/01 03:16:29;;;;;;;14.07;3.90;;;13.20;99.90;;;;;;5006537;28;20061;-73
2023/01/01 03:19:16;;;;;;;11.77;2.95;;;13.30;99.90;;;;;;5031416;28;20376;-71
2023/01/01 03:22:02;;;;;;;8.13;2.70;;;13.30;99.90;;;;;;5130584;28;20043;-72
2023/01/01 03:24:48;;;;;;;12.68;4.55;;;13.30;99.90;;;;;;5049180;28;20041;-72
2023/01/01 03:27:27;;;;;;;6.07;2.05;;;13.30;99.90;;;;;;5021903;28;20049;-71
2023/01/01 03:29:57;;;;;;;9.00;2.42;;;13.40;99.90;;;;;;5025473;28;20359;-71
2023/01/01 03:35:22;;;;;;;6.32;2.28;;;13.40;99.90;;;;;;5033509;28;20057;-72
2023/01/01 03:37:50;;;;;;;8.40;1.98;;;13.40;99.90;;;;;;5015319;28;20047;-74
2023/01/01 03:40:18;;;;;;;9.93;2.53;;;13.50;99.90;;;;;;5033939;28;20545;-71
2023/01/01 03:42:50;;;;;;;9.95;2.10;;;13.50;99.90;;;;;;5034712;28;20045;-71
2023/01/01 03:45:20;;;;;;;8.23;2.33;;;13.60;99.90;;;;;;5016761;28;20037;-71
2023/01/01 03:47:45;;;;;;;4.78;1.88;;;13.60;99.90;;;;;;5021562;28;20116;-71
2023/01/01 03:50:13;;;;;;;4.90;2.13;;;13.60;99.90;;;;;;5027183;28;20037;-71
2023/01/01 03:53:04;;;;;;;8.05;2.30;;;13.50;99.90;;;;;;5007376;28;20476;-71
2023/01/01 03:55:44;;;;;;;9.38;2.13;;;13.50;99.90;;;;;;5025564;28;20088;-71
2023/01/01 03:59:01;;;;;;;9.40;2.65;;;13.50;99.90;;;;;;5024474;28;20033;-71
2023/01/01 04:01:34;;;;;;;7.35;1.90;;;13.50;99.90;;;;;;5026838;28;20057;-72
2023/01/01 04:04:03;;;;;;;5.85;1.63;;;13.60;99.90;;;;;;5027586;28;20045;-71
2023/01/01 04:06:31;;;;;;;3.90;1.83;;;13.60;99.90;;;;;;5022270;28;20053;-71
2023/01/01 04:08:59;;;;;;;5.70;1.77;;;13.70;99.90;;;;;;5021688;28;20053;-72
2023/01/01 04:14:12;;;;;;;7.97;1.83;;;13.70;99.90;;;;;;5025380;28;20056;-72
2023/01/01 04:16:38;;;;;;;8.02;2.53;;;13.70;99.90;;;;;;5009293;28;20038;-72
2023/01/01 04:19:05;;;;;;;4.55;1.88;;;13.70;99.90;;;;;;5027009;28;20038;-71
2023/01/01 04:21:32;;;;;;;7.40;1.52;;;13.70;99.90;;;;;;5034559;28;20053;-71
2023/01/01 04:23:58;;;;;;;8.10;1.80;;;13.80;99.90;;;;;;5009361;28;20033;-72
2023/01/01 04:26:24;;;;;;;10.80;2.22;;;13.80;99.90;;;;;;5008740;28;20095;-71
2023/01/01 04:28:49;;;;;;;6.20;1.80;;;13.80;99.90;;;;;;5021473;28;20121;-71
2023/01/01 04:31:15;;;;;;;5.38;1.75;;;13.80;99.90;;;;;;5026080;28;20098;-72
2023/01/01 04:33:41;;;;;;;8.93;1.60;;;13.80;99.90;;;;;;5027916;28;20452;-71
2023/01/01 04:36:09;;;;;;;8.15;2.42;;;13.70;99.90;;;;;;5026446;28;20891;-71
2023/01/01 04:38:35;;;;;;;6.18;2.17;;;13.70;99.90;;;;;;5029211;28;20060;-71
2023/01/01 04:41:02;;;;;;;8.60;2.05;;;13.70;99.90;;;;;;5028520;28;20053;-71
2023/01/01 04:43:29;;;;;;;11.00;2.22;;;13.70;99.90;;;;;;5029038;28;20051;-72
2023/01/01 04:45:59;;;;;;;5.75;1.70;;;13.70;99.90;;;;;;5028667;28;20442;-74
2023/01/01 04:48:25;;;;;;;10.07;2.22;;;13.80;99.90;;;;;;5028819;28;20041;-72
2023/01/01 04:50:57;;;;;;;;;;;13.80;99.90;;;;;;5029219;28;20037;-71
2023/01/01 04:53:24;;;;;;;5.75;1.58;;;13.80;99.90;;;;;;5029111;28;19924;-71
2023/01/01 04:55:50;;;;;;;7.47;2.00;;;13.80;99.90;;;;;;5025332;28;20073;-71
2023/01/01 04:58:16;;;;;;;5.75;1.88;;;13.80;99.90;;;;;;5010274;28;20211;-71
2023/01/01 05:00:41;;;;;;;;;;;13.80;99.90;;;;;;5029493;28;20086;-71
2023/01/01 05:03:07;;;;;;;12.07;2.05;;;13.70;99.90;;;;;;5020697;28;19970;-71
2023/01/01 05:05:33;;;;;;;5.53;1.40;;;13.70;99.90;;;;;;5008952;28;20057;-71
2023/01/01 05:07:58;;;;;;;5.10;1.77;;;13.80;99.90;;;;;;5008287;28;20179;-74
2023/01/01 05:10:24;;;;;;;5.15;1.42;;;13.70;99.90;;;;;;5020384;28;20045;-71
2023/01/01 05:12:50;;;;;;;4.00;1.30;;;13.80;99.90;;;;;;5028139;28;20488;-71
2023/01/01 05:15:15;;;;;;;8.32;1.95;;;13.70;99.90;;;;;;5028391;28;20041;-71
2023/01/01 05:17:41;;;;;;;6.55;1.60;;;13.70;99.90;;;;;;5014523;28;20368;-71
2023/01/01 05:20:07;;;;;;;7.13;1.50;;;13.70;99.90;;;;;;4991260;28;20122;-71
2023/01/01 05:22:32;;;;;;;;;;;13.60;99.90;;;;;;4991720;28;20099;-71
2023/01/01 05:24:58;;;;;;;5.68;1.67;;;13.60;99.90;;;;;;5025051;28;19968;-73
2023/01/01 05:27:24;;;;;;;3.20;1.40;;;13.70;99.90;;;;;;5027619;28;20102;-71
2023/01/01 05:29:49;;;;;;;;;;;13.60;99.90;;;;;;5028935;28;20034;-71
2023/01/01 05:32:15;;;;;;;3.35;1.10;;;13.60;99.90;;;;;;5023555;28;19930;-71
2023/01/01 05:34:40;;;;;;;3.58;1.25;;;13.50;99.90;;;;;;5010955;28;20081;-71
2023/01/01 05:37:06;;;;;;;2.63;1.00;;;13.50;99.90;;;;;;5027304;28;20050;-70
2023/01/01 05:39:32;;;;;;;5.28;1.20;;;13.50;99.90;;;;;;5028486;28;20042;-71
2023/01/01 05:41:57;;;;;;;2.72;0.98;;;13.40;99.90;;;;;;5024875;28;20514;-71
2023/01/01 05:44:23;;;;;;;3.08;1.13;;;13.40;99.90;;;;;;5024053;28;20046;-70
2023/01/01 05:46:49;;;;;;;2.35;1.00;;;13.40;99.90;;;;;;5022550;28;20116;-71
2023/01/01 05:49:14;;;;;;;2.63;0.90;;;13.30;99.90;;;;;;5027674;28;20402;-71
2023/01/01 05:51:40;;;;;;;4.22;1.25;;;13.30;99.90;;;;;;5043477;28;20045;-71
2023/01/01 05:54:06;;;;;;;3.72;1.52;;;13.30;99.90;;;;;;5026989;28;20044;-71
2023/01/01 05:56:31;;;;;;;3.20;0.85;;;13.30;99.90;;;;;;5007393;28;20045;-71
2023/01/01 05:58:57;;;;;;;4.45;1.05;;;13.20;99.90;;;;;;5008114;28;20475;-70
2023/01/01 06:01:25;;;;;;;3.40;1.15;;;13.20;99.90;;;;;;5010826;28;20113;-70
2023/01/01 06:03:54;;;;;;;4.35;1.38;;;13.10;99.90;;;;;;5015501;28;20506;-70
2023/01/01 06:06:25;;;;;;;2.88;0.90;;;13.10;99.90;;;;;;5018463;28;20058;-71
2023/01/01 06:08:53;;;;;;;4.35;1.20;;;13.00;99.90;;;;;;5020884;28;20056;-71
2023/01/01 06:11:19;;;;;;;4.25;1.23;;;13.00;99.90;;;;;;5006753;28;20092;-71
2023/01/01 06:13:45;;;;;;;2.88;1.10;;;12.90;99.90;;;;;;5007843;28;20106;-71
2023/01/01 06:16:11;;;;;;;;;;;12.90;99.90;;;;;;5007264;28;20054;-71
2023/01/01 06:18:37;;;;;;;2.58;1.13;;;12.90;99.90;;;;;;5018479;28;19925;-70
2023/01/01 06:21:10;;;;;;;5.40;1.25;;;12.80;99.90;;;;;;5026769;28;20046;-72
2023/01/01 06:23:36;;;;;;;1.80;1.10;;;12.80;99.90;;;;;;5007920;28;20042;-70
2023/01/01 06:26:10;;;;;;;4.20;1.27;;;12.80;99.90;;;;;;5007957;28;20037;-71
2023/01/01 06:28:36;;;;;;;5.28;1.20;;;12.70;99.90;;;;;;5020484;28;20052;-70
2023/01/01 06:31:02;;;;;;;;;;;12.70;99.90;;;;;;5017591;28;20046;-71
2023/01/01 06:33:28;;;;;;;3.53;1.13;;;12.70;99.90;;;;;;4996504;28;19921;-70
2023/01/01 06:35:54;;;;;;;2.63;1.02;;;12.70;99.90;;;;;;5027133;28;20049;-71
2023/01/01 06:38:20;;;;;;;2.95;1.52;;;12.60;99.90;;;;;;5007229;28;20052;-70
2023/01/01 06:40:56;;;;;;;4.28;1.23;;;12.50;99.90;;;;;;5018147;28;20038;-70
2023/01/01 06:43:22;;;;;;;4.20;1.40;;;12.50;99.90;;;;;;5026688;28;20038;-70
2023/01/01 06:45:48;;;;;;;2.95;1.45;;;12.50;99.90;;;;;;5026971;28;20045;-70
2023/01/01 06:48:13;;;;;;;9.15;1.48;;;12.50;99.90;;;;;;5021662;28;20072;-70
2023/01/01 06:50:39;;;;;;;4.88;1.20;;;12.50;99.90;;;;;;5022909;28;20045;-70
2023/01/01 06:53:04;;;;;;;4.05;1.10;;;12.50;99.90;;;;;;5008220;28;20045;-70
2023/01/01 06:55:30;;;;;;;8.55;1.85;;;12.50;99.90;;;;;;5026749;28;20053;-70
2023/01/01 06:57:56;;;;;;;8.80;1.30;;;12.50;99.90;;;;;;5019010;28;20054;-70
2023/01/01 07:00:22;;;;;;;3.25;1.35;;;12.40;99.90;;;;;;5007217;28;20045;-70
2023/01/01 07:02:47;;;;;;;3.55;1.40;;;12.40;99.90;;;;;;5022112;28;20096;-70
2023/01/01 07:05:13;;;;;;;8.30;1.63;;;12.40;99.90;;;;;;5006877;28;20053;-70
2023/01/01 07:07:39;;;;;;;9.82;1.92;;;12.40;99.90;;;;;;5022828;28;20053;-70
2023/01/01 07:10:05;;;;;;;3.95;1.50;;;12.40;99.90;;;;;;5027055;28;20501;-70
2023/01/01 07:12:31;;;;;;;3.50;1.42;;;12.40;99.90;;;;;;5008391;28;20654;-70
2023/01/01 07:14:56;;;;;;;4.30;1.52;;;12.40;99.90;;;;;;5015075;28;20038;-70
2023/01/01 07:17:22;;;;;;;5.05;1.30;;;12.40;99.90;;;;;;5016647;28;20149;-69
2023/01/01 07:19:47;;;;;;;4.05;1.52;;;12.40;99.90;;;;;;5027064;28;20060;-70
2023/01/01 07:22:13;;;;;;;5.03;1.63;;;12.40;99.90;;;;;;5027540;28;20069;-70
2023/01/01 07:24:39;;;;;;;3.35;1.10;;;12.40;99.90;;;;;;5013047;28;20181;-70
2023/01/01 07:27:04;;;;;;;4.82;1.63;;;12.40;99.90;;;;;;5012632;28;20042;-71
2023/01/01 07:29:32;;;;;;;6.07;1.95;;;12.30;99.90;;;;;;5027172;28;20091;-69
2023/01/01 07:31:57;;;;;;;5.90;1.65;;;12.30;99.90;;;;;;5023778;28;20106;-70
2023/01/01 07:34:23;;;;;;;6.15;1.40;;;12.30;99.90;;;;;;5028300;28;20394;-70
2023/01/01 07:36:49;;;;;;;6.85;1.70;;;12.30;99.90;;;;;;5010160;28;20050;-69
2023/01/01 07:39:15;;;;;;;;;;;12.30;99.90;;;;;;5013450;27;20046;-70
2023/01/01 07:41:40;;;;;;;7.50;1.45;;;12.30;99.90;;;;;;5070502;28;19975;-70
2023/01/01 07:44:06;;;;;;;3.83;0.88;;;12.30;99.90;;;;;;5010779;28;20042;-70
2023/01/01 07:46:34;;;;;;;11.20;1.70;;;12.30;99.90;;;;;;5013877;28;20816;-70
2023/01/01 07:49:00;;;;;;;5.72;1.80;;;12.30;99.90;;;;;;5010408;28;20098;-70
2023/01/01 07:51:26;;;;;;;5.43;1.20;;;12.30;99.90;;;;;;5017090;28;20053;-70
2023/01/01 07:53:52;;;;;;;7.18;1.10;;;12.30;99.90;;;;;;5029859;28;20485;-70
2023/01/01 07:56:20;;;;;;;4.15;1.10;;;12.30;99.90;;;;;;5029400;28;20041;-70
2023/01/01 07:58:45;;;;;;;6.88;1.35;;;12.30;99.90;;;;;;5029315;28;20076;-70
2023/01/01 08:01:13;;;;;;;4.97;1.10;;;12.20;99.90;;;;;;5029291;28;20153;-70
2023/01/01 08:03:39;;;;;;;3.60;1.00;;;12.20;99.90;;;;;;5027565;28;20077;-70
2023/01/01 08:06:12;;;;;;;7.03;1.58;;;12.30;99.90;;;;;;5029104;28;20158;-70
2023/01/01 08:08:38;;;;;;;8.52;1.23;;;12.30;99.90;;;;;;5024429;28;20041;-70
2023/01/01 08:11:04;;;;;;;6.68;0.98;;;12.20;99.90;;;;;;5010101;28;20045;-70
2023/01/01 08:13:30;;;;;;;3.88;1.33;;;12.20;99.90;;;;;;5009158;28;20067;-69
2023/01/01 08:15:57;;;;;;;;;;;12.20;99.90;;;;;;5010124;28;20045;-69
2023/01/01 08:18:22;;;;;;;9.37;1.40;;;12.10;99.90;;;;;;5017645;28;20249;-70
2023/01/01 08:20:48;;;;;;;1.73;1.02;;;12.10;99.90;;;;;;5029329;28;20553;-70
2023/01/01 08:23:14;;;;;;;4.03;1.00;;;12.10;99.90;;;;;;5025219;28;20045;-72
2023/01/01 08:25:39;;;;;;;5.22;1.30;;;12.10;99.90;;;;;;5009434;28;20034;-69
2023/01/01 08:28:05;;;;;;;3.20;1.20;;;12.00;99.90;;;;;;5009326;28;20759;-69
2023/01/01 08:30:31;;;;;;;6.57;1.33;;;12.00;99.90;;;;;;5009410;28;20044;-69
2023/01/01 08:32:56;;;;;;;8.25;1.33;;;12.00;99.90;;;;;;5044274;27;20039;-69
2023/01/01 08:35:22;;;;;;;5.93;0.90;;;12.00;99.90;;;;;;5133091;27;20427;-69
2023/01/01 08:37:47;;;;;;;4.93;1.33;;;11.90;99.90;;;;;;5098242;27;20054;-70
2023/01/01 08:40:13;;;;;;;6.10;1.38;;;12.00;99.90;;;;;;5080368;27;20045;-70
2023/01/01 08:42:39;;;;;;;5.10;1.20;;;12.00;99.90;;;;;;5028208;28;20049;-69
2023/01/01 08:45:06;;;;;;;6.78;1.45;;;12.00;99.90;;;;;;5028522;28;20042;-70
2023/01/01 08:47:31;;;;;;;4.38;0.80;;;12.00;99.90;;;;;;5026081;28;20049;-69
2023/01/01 08:49:57;;;;;;;3.60;1.05;;;11.90;99.90;;;;;;5028728;28;20048;-70
2023/01/01 08:52:22;;;;;;;8.43;1.38;;;11.90;99.90;;;;;;5050569;27;20154;-70
2023/01/01 08:54:48;;;;;;;6.47;1.25;;;11.90;99.90;;;;;;5025013;28;20052;-70
2023/01/01 08:57:14;;;;;;;5.18;1.00;;;11.90;99.90;;;;;;5028313;28;20045;-70
2023/01/01 08:59:40;;;;;;;7.57;1.27;;;11.90;99.90;;;;;;5068795;27;20043;-70
2023/01/01 09:02:06;;;;;;;5.45;1.58;;;11.90;99.90;;;;;;5027863;28;20506;-70
2023/01/01 09:04:31;;;;;;;5.43;1.35;;;11.80;99.90;;;;;;5028521;27;20034;-69
2023/01/01 09:06:57;;;;;;;6.72;1.33;;;11.80;99.90;;;;;;5028452;28;20543;-70
2023/01/01 09:09:23;;;;;;;4.75;1.30;;;11.80;99.90;;;;;;5026084;28;20061;-69
2023/01/01 09:11:51;;;;;;;7.35;1.20;;;11.80;99.90;;;;;;5034981;28;20095;-69
2023/01/01 09:14:17;;;;;;;6.45;1.63;;;11.80;99.90;;;;;;5008986;28;20049;-69
2023/01/01 09:16:42;;;;;;;8.60;1.25;;;11.80;99.90;;;;;;5007757;28;20045;-69
2023/01/01 09:19:08;;;;;;;6.60;0.90;;;11.70;99.90;;;;;;5008995;28;20070;-70
2023/01/01 09:21:34;;;;;;;4.75;1.42;;;11.70;99.90;;;;;;5008152;28;20041;-70
2023/01/01 09:23:59;;;;;;;5.78;1.77;;;11.70;99.90;;;;;;5014578;28;20041;-70
2023/01/01 09:26:25;;;;;;;5.07;0.88;;;11.70;99.90;;;;;;5027707;28;20045;-70
2023/01/01 09:28:51;;;;;;;1.77;0.82;;;11.70;99.90;;;;;;5028153;28;20048;-70
2023/01/01 09:31:17;;;;;;;8.52;1.17;;;11.70;99.90;;;;;;5027619;28;20394;-69
2023/01/01 09:33:42;;;;;;;6.70;0.95;;;11.80;99.90;;;;;;5003307;28;20479;-69
2023/01/01 09:36:33;;;;;;;6.63;0.93;;;11.80;99.90;;;;;;5020835;28;20083;-69
2023/01/01 09:38:59;;;;;;;10.63;1.52;;;11.70;99.90;;;;;;5008301;28;20065;-70
2023/01/01 09:41:44;;;;;;;4.70;1.27;;;11.80;99.90;;;;;;5007818;28;20372;-70
2023/01/01 09:44:30;;;;;;;2.72;0.95;;;11.90;99.90;;;;;;5008308;28;20513;-69
2023/01/01 09:47:01;;;;;;;3.97;1.80;;;11.90;99.90;;;;;;5007022;28;20395;-69
2023/01/01 09:49:42;;;;;;;3.53;0.90;;;11.90;99.90;;;;;;5008026;28;20429;-72
2023/01/01 09:52:14;;;;;;;3.08;0.93;;;11.90;99.90;;;;;;4990465;28;20462;-72
2023/01/01 09:54:47;;;;;;;9.23;1.67;;;12.00;99.90;;;;;;5006988;28;20490;-71
2023/01/01 09:57:13;;;;;;;7.65;1.20;;;12.00;99.90;;;;;;5010054;28;20092;-72
2023/01/01 09:59:39;;;;;;;3.80;1.40;;;12.00;99.90;;;;;;5027346;28;20073;-73
2023/01/01 10:02:16;;;;;;;8.23;1.23;;;12.00;99.90;;;;;;5095729;28;20047;-72
2023/01/01 10:05:01;;;;;;;4.43;1.55;;;12.00;99.90;;;;;;5027203;28;20457;-72
2023/01/01 10:07:48;;;;;;;8.45;1.50;;;12.10;99.90;;;;;;5027367;28;20102;-74
2023/01/01 10:10:28;;;;;;;4.20;1.23;;;12.10;99.90;;;;;;5027988;28;20049;-72
2023/01/01 10:13:31;;;;;;;8.35;1.30;;;12.10;99.90;;;;;;5027505;28;20186;-72
2023/01/01 10:16:00;;;;;;;8.25;1.25;;;12.10;99.90;;;;;;5027551;28;20049;-71
2023/01/01 10:18:32;;;;;;;7.55;1.38;;;12.00;99.90;;;;;;5027695;28;20097;-72
2023/01/01 10:21:00;;;;;;;12.48;2.00;;;12.00;99.90;;;;;;5020377;28;20537;-70
2023/01/01 10:23:34;;;;;;;10.15;1.50;;;11.90;99.90;;;;;;5016896;28;20037;-73
2023/01/01 10:26:08;;;;;;;1.92;0.90;;;11.90;99.90;;;;;;5027777;28;20056;-70
2023/01/01 10:28:53;;;;;;;8.68;1.60;;;11.90;99.90;;;;;;5026811;28;20038;-71
2023/01/01 10:31:35;;;;;;;6.10;1.50;;;11.90;99.90;;;;;;5026746;28;20131;-70
2023/01/01 10:34:24;;;;;;;7.75;1.40;;;11.90;99.90;;;;;;5009814;28;20049;-70
2023/01/01 10:36:56;;;;;;;7.88;1.50;;;11.90;99.90;;;;;;5024134;28;20102;-70
2023/01/01 10:39:22;;;;;;;4.20;1.20;;;12.00;99.90;;;;;;5026730;28;20574;-70
2023/01/01 10:41:48;;;;;;;6.97;1.20;;;12.10;99.90;;;;;;5018326;28;20109;-70
2023/01/01 10:44:17;;;;;;;16.33;1.23;;;12.20;99.90;;;;;;5013303;28;20073;-70
2023/01/01 10:46:52;;;;;;;5.25;1.33;;;12.30;99.90;;;;;;5005987;28;20509;-70
2023/01/01 10:49:18;;;;;;;8.23;1.60;;;12.40;99.90;;;;;;4993380;28;20432;-70
2023/01/01 10:51:49;;;;;;;9.52;1.40;;;12.30;99.90;;;;;;5019139;28;20049;-70
2023/01/01 10:54:35;;;;;;;5.60;1.48;;;12.40;99.90;;;;;;5017335;28;20047;-69
2023/01/01 10:57:25;;;;;;;6.57;0.95;;;12.30;99.90;;;;;;5015220;28;20053;-69
2023/01/01 10:59:51;;;;;;;5.63;1.20;;;12.40;99.90;;;;;;5011797;28;20513;-69
2023/01/01 11:02:21;;;;;;;;;;;12.40;99.90;;;;;;5026499;28;20046;-70
2023/01/01 11:04:48;;;;;;;6.93;1.30;;;12.50;99.90;;;;;;5017346;28;19928;-70
2023/01/01 11:07:29;;;;;;;7.47;1.55;;;12.50;99.90;;;;;;5018592;28;20490;-69
2023/01/01 11:10:05;;;;;;;5.22;1.38;;;12.60;99.90;;;;;;5026326;28;20041;-70
2023/01/01 11:12:35;;;;;;;12.30;1.25;;;12.70;99.90;;;;;;5026489;28;20379;-70
2023/01/01 11:15:01;;;;;;;4.72;1.35;;;12.80;99.90;;;;;;5027165;28;20129;-69
2023/01/01 11:17:35;;;;;;;;;;;13.10;99.90;;;;;;5026744;28;20042;-71
2023/01/01 11:20:02;;;;;;;6.20;1.35;;;13.60;99.90;;;;;;5042444;28;20943;-71
2023/01/01 11:22:41;;;;;;;4.75;1.42;;;14.20;99.90;;;;;;5025781;28;20052;-72
2023/01/01 11:25:28;;;;;;;5.35;1.00;;;14.50;99.90;;;;;;5020580;28;20045;-69
2023/01/01 11:28:12;;;;;;;3.80;1.23;;;14.80;99.90;;;;;;5023487;28;20373;-70
2023/01/01 11:30:38;;;;;;;9.73;1.90;;;15.20;99.90;;;;;;5024873;28;20048;-73
2023/01/01 11:33:04;;;;;;;;;;;15.50;99.90;;;;;;5026497;28;20106;-71
2023/01/01 11:35:34;;;;;;;8.25;1.45;;;15.60;99.90;;;;;;5026783;28;20274;-70
2023/01/01 11:38:01;;;;;;;10.00;1.63;;;15.30;99.90;;;;;;5026087;28;20048;-68
2023/01/01 11:40:43;;;;;;;7.63;1.77;;;14.80;99.90;;;;;;5026843;28;20045;-68
2023/01/01 11:43:17;;;;;;;9.05;1.75;;;14.30;99.90;;;;;;5025988;28;20049;-69
2023/01/01 11:45:43;;;;;;;6.18;1.48;;;14.10;99.90;;;;;;5017631;28;20116;-70
2023/01/01 11:48:18;;;;;;;5.70;1.15;;;14.40;99.90;;;;;;5029103;28;20061;-70
2023/01/01 11:50:56;;;;;;;6.28;1.35;;;14.50;99.90;;;;;;5023415;28;20112;-72
2023/01/01 11:53:22;;;;;;;5.75;1.48;;;14.30;99.90;;;;;;5019917;28;20039;-74
2023/01/01 11:56:33;;;;;;;7.13;1.23;;;14.30;99.90;;;;;;5020675;28;20481;-71
2023/01/01 11:59:11;;;;;;;6.38;1.75;;;14.20;99.90;;;;;;5029893;28;20309;-70
2023/01/01 12:02:02;;;;;;;7.75;1.48;;;14.10;99.90;;;;;;5025537;28;20090;-74
2023/01/01 12:04:49;;;;;;;7.38;1.27;;;14.20;99.90;;;;;;5019682;28;20060;-70
2023/01/01 12:07:20;;;;;;;9.95;2.13;;;14.50;99.90;;;;;;5016459;28;20094;-70
2023/01/01 12:10:01;;;;;;;7.55;1.52;;;15.20;99.90;;;;;;5024050;28;20501;-70
2023/01/01 12:12:33;;;;;;;5.55;1.20;;;15.80;99.90;;;;;;5026823;28;20068;-70
2023/01/01 12:15:13;;;;;;;10.43;1.65;;;15.80;99.90;;;;;;5027152;28;20074;-71
2023/01/01 12:17:42;;;;;;;6.50;1.95;;;15.50;99.90;;;;;;5032510;28;20360;-73
2023/01/01 12:20:14;;;;;;;3.45;1.10;;;15.40;99.90;;;;;;5030300;27;20073;-72
2023/01/01 12:22:40;;;;;;;8.70;1.40;;;15.10;99.90;;;;;;5027679;28;20098;-74
2023/01/01 12:25:12;;;;;;;10.05;1.45;;;14.60;99.90;;;;;;5026217;28;20041;-72
2023/01/01 12:28:14;;;;;;;7.90;1.45;;;14.10;99.90;;;;;;5017760;28;20416;-70
2023/01/01 12:30:53;;;;;;;11.55;1.80;;;13.60;99.90;;;;;;5008374;28;20044;-70
2023/01/01 12:33:22;;;;;;;6.13;1.77;;;13.30;99.90;;;;;;5007515;28;20109;-70
2023/01/01 12:36:05;;;;;;;5.32;1.10;;;13.00;99.90;;;;;;5007169;28;20541;-70
2023/01/01 12:38:50;;;;;;;6.20;1.40;;;12.80;99.90;;;;;;5008897;28;20049;-70
2023/01/01 12:41:43;;;;;;;8.02;2.00;;;12.70;99.90;;;;;;5007438;28;20046;-70
2023/01/01 12:44:32;;;;;;;7.50;1.40;;;12.60;99.90;;;;;;5007061;28;20048;-69
2023/01/01 12:47:35;;;;;;;5.65;1.30;;;12.50;99.90;;;;;;5005967;28;20087;-69
2023/01/01 12:50:03;;;;;;;4.70;1.52;;;12.40;99.90;;;;;;5021980;28;20038;-68
2023/01/01 12:52:35;;;;;;;10.50;2.72;;;12.40;99.90;;;;;;5034141;28;20053;-68
2023/01/01 12:55:25;;;;;;;7.00;1.20;;;12.30;99.90;;;;;;5028129;28;20048;-69
2023/01/01 12:58:03;;;;;;;9.23;1.50;;;12.30;99.90;;;;;;5027688;28;20049;-69
2023/01/01 13:00:31;;;;;;;10.45;1.90;;;12.30;99.90;;;;;;5029373;28;20042;-68
2023/01/01 13:03:06;;;;;;;7.45;1.42;;;12.30;99.90;;;;;;5027048;28;20052;-69
2023/01/01 13:05:38;;;;;;;7.00;1.60;;;12.30;99.90;;;;;;5028592;28;20057;-69
2023/01/01 13:08:04;;;;;;;6.03;2.00;;;12.30;99.90;;;;;;5027991;28;20169;-69
2023/01/01 13:10:43;;;;;;;10.68;1.98;;;12.30;99.90;;;;;;5011195;28;20056;-68